TAF SKCG
SKCG 090430Z 0906/1006 VRB02KT 9999 FEW017 BECMG 0915/0917 34010KT TEMPO 0920/0922 SCT015TCU TX33/0918Z TN24/0910Z=
METAR SKCG
SKCG 080500Z 02004KT 360V110 CAVOK 26/24 Q1008 RMK A2978=
SKCG 080000Z 01008KT 360V070 CAVOK 27/24 Q1007 RMK A2975=
SKCG 062300Z 01004KT 9999 FEW023 28/23 Q1008 RMK A2978=
WC SKCG
WS SKCG
WV SKCG